Time;durP1;ratioP1;P1;durP2;ratioP2;P2;SDS_P1;SDS_P2;PMS_P1;PMS_P2;Temp;Humidity;BMP_temperature;BMP_pressure;BME280_temperature;BME280_humidity;BME280_pressure;Samples;Min_cycle;Max_cycle;Signal;HPM_P1;HPM_P2
2021/09/10 00:04:04;;;;;;;;;;;;;;;;;;;;;
2021/09/10 00:11:36;;;;;;;1999.90;999.90;;;;;;;20.27;64.42;100721.25;15762192;28;20438;-60
2021/09/10 00:19:12;;;;;;;1999.90;999.90;;;;;;;20.24;64.48;100729.75;15754046;28;20105;-60
2021/09/10 00:26:56;;;;;;;1999.90;999.90;;;;;;;20.09;65.29;100729.69;15762633;28;20054;-60
2021/09/10 00:34:30;;;;;;;1999.90;999.90;;;;;;;19.98;65.84;100728.00;15765495;28;20117;-60
2021/09/10 00:42:14;;;;;;;1999.90;999.90;;;;;;;19.79;66.69;100729.13;15759637;28;20402;-60
2021/09/10 00:49:53;;;;;;;1999.90;999.90;;;;;;;19.71;67.02;100725.44;15746078;28;20041;-60
2021/09/10 00:57:38;;;;;;;1999.90;999.90;;;;;;;19.67;67.29;100727.44;15779407;28;20414;-60
2021/09/10 01:05:14;;;;;;;1999.90;999.90;;;;;;;19.61;67.42;100729.03;15776738;28;20036;-60
2021/09/10 01:13:15;;;;;;;1999.90;999.90;;;;;;;19.45;67.83;100729.28;15730647;28;20044;-60
2021/09/10 01:20:50;;;;;;;1999.90;999.90;;;;;;;19.42;68.06;100724.41;15764279;28;20457;-60
2021/09/10 01:28:41;;;;;;;1999.90;999.90;;;;;;;19.25;68.88;100737.19;15757175;28;20539;-59
2021/09/10 01:36:16;;;;;;;1999.90;999.90;;;;;;;19.14;69.27;100732.66;15782796;28;20049;-60
2021/09/10 01:43:50;;;;;;;1999.90;999.90;;;;;;;19.10;69.54;100732.63;15773910;28;20111;-60
2021/09/10 01:52:01;;;;;;;1999.90;999.90;;;;;;;19.03;69.68;100729.75;15776486;28;20429;-59
2021/09/10 02:00:36;;;;;;;1999.90;999.90;;;;;;;18.89;70.11;100732.44;15752335;28;20051;-60
2021/09/10 02:08:26;;;;;;;1999.90;999.90;;;;;;;18.87;70.32;100738.50;15763695;28;20517;-59
2021/09/10 02:16:40;;;;;;;1999.90;999.90;;;;;;;18.78;70.40;100749.31;15777171;28;20052;-58
2021/09/10 02:24:25;;;;;;;1999.90;999.90;;;;;;;18.72;70.54;100736.72;15808465;28;20052;-58
2021/09/10 02:31:58;;;;;;;1999.90;999.90;;;;;;;18.64;70.86;100744.28;15774172;28;20111;-59
2021/09/10 02:39:39;;;;;;;1999.90;999.90;;;;;;;18.68;70.56;100733.03;15775270;28;20044;-59
2021/09/10 02:47:53;;;;;;;1999.90;999.90;;;;;;;18.63;70.60;100734.16;15755638;28;20107;-56
2021/09/10 02:55:25;;;;;;;1999.90;999.90;;;;;;;18.70;70.01;100737.09;15766816;28;20040;-58
2021/09/10 03:03:09;;;;;;;1999.90;999.90;;;;;;;18.58;70.35;100720.41;15757656;28;20037;-58
2021/09/10 03:10:53;;;;;;;1999.90;999.90;;;;;;;18.76;70.13;100740.41;15766329;28;20063;-59
2021/09/10 03:18:50;;;;;;;1999.90;999.90;;;;;;;18.64;70.71;100732.16;15775319;28;20090;-56
2021/09/10 03:26:51;;;;;;;1999.90;999.90;;;;;;;18.41;71.26;100732.31;15661060;28;20036;-59
2021/09/10 03:34:30;;;;;;;1999.90;999.90;;;;;;;18.32;71.75;100726.13;15763088;28;20052;-59
2021/09/10 03:42:20;;;;;;;1999.90;999.90;;;;;;;18.19;72.08;100728.41;15742204;28;20089;-58
2021/09/10 03:50:01;;;;;;;1999.90;999.90;;;;;;;18.11;72.61;100735.16;15793384;28;20071;-58
2021/09/10 03:57:33;;;;;;;1999.90;999.90;;;;;;;18.11;72.22;100741.63;15738986;28;20049;-58
2021/09/10 04:05:08;;;;;;;1999.90;999.90;;;;;;;18.08;72.70;100741.59;15778927;28;20048;-58
2021/09/10 04:12:42;;;;;;;1999.90;999.90;;;;;;;18.10;72.66;100742.81;15767061;28;20046;-57
2021/09/10 04:20:27;;;;;;;1999.90;999.90;;;;;;;18.03;72.89;100747.56;15786224;28;20037;-58
2021/09/10 04:28:10;;;;;;;1999.90;999.90;;;;;;;17.97;73.07;100758.38;15755433;28;20506;-58
2021/09/10 04:35:44;;;;;;;1999.90;999.90;;;;;;;17.98;73.03;100776.94;15766033;28;20094;-57
2021/09/10 04:44:10;;;;;;;1999.90;999.90;;;;;;;17.96;73.43;100779.34;15758261;28;20055;-57
2021/09/10 04:51:53;;;;;;;1999.90;999.90;;;;;;;18.07;73.56;100788.78;15749005;28;20136;-58
2021/09/10 04:59:59;;;;;;;;;;;;;;;;;;;;;
2021/09/10 05:07:54;;;;;;;1999.90;999.90;;;;;;;18.26;74.15;100784.19;15647540;28;20417;-58
2021/09/10 05:15:40;;;;;;;1999.90;999.90;;;;;;;18.45;73.57;100784.84;15768740;28;20118;-60
2021/09/10 05:23:14;;;;;;;1999.90;999.90;;;;;;;18.93;71.91;100803.97;15753458;28;20048;-58
2021/09/10 05:30:50;;;;;;;1999.90;999.90;;;;;;;19.15;70.89;100799.34;15793751;28;20067;-59
2021/09/10 05:38:49;;;;;;;1999.90;999.90;;;;;;;19.20;70.96;100804.66;15777076;28;20048;-61
2021/09/10 05:46:33;;;;;;;1999.90;999.90;;;;;;;19.73;69.49;100801.47;15754287;28;20037;-61
2021/09/10 05:54:06;;;;;;;1999.90;999.90;;;;;;;19.99;69.16;100817.41;15745301;28;20068;-60
2021/09/10 06:10:23;;;;;;;1999.90;999.90;;;;;;;20.35;68.46;100824.13;15688144;28;20036;-60
2021/09/10 06:18:06;;;;;;;;;;;;;;;;;;;;;
2021/09/10 06:26:00;;;;;;;1999.90;999.90;;;;;;;20.83;68.02;100829.59;15747019;28;20044;-60
2021/09/10 06:33:57;;;;;;;;;;;;;;;21.20;67.77;100838.59;15806529;28;20058;-58
2021/09/10 06:41:30;;;;;;;1999.90;999.90;;;;;;;21.86;66.11;100839.06;15801654;28;19920;-59
2021/09/10 06:49:09;;;;;;;1999.90;999.90;;;;;;;22.47;65.29;100847.47;15805553;28;20114;-60
2021/09/10 06:56:52;;;;;;;1999.90;999.90;;;;;;;23.18;62.87;100866.28;15786187;28;20056;-59
2021/09/10 07:04:57;;;;;;;1999.90;999.90;;;;;;;23.46;62.56;100859.59;15786198;28;20044;-59
2021/09/10 07:12:39;;;;;;;1999.90;999.90;;;;;;;23.81;62.33;100869.91;15804376;28;20086;-59
2021/09/10 07:20:26;;;;;;;1999.90;999.90;;;;;;;24.04;60.97;100869.31;15789589;28;20453;-59
2021/09/10 07:27:59;;;;;;;1999.90;999.90;;;;;;;24.95;59.25;100877.25;15806928;28;20499;-58
2021/09/10 07:35:44;;;;;;;1999.90;999.90;;;;;;;25.13;58.62;100889.28;15809769;28;20560;-59
2021/09/10 07:43:17;;;;;;;1999.90;999.90;;;;;;;25.86;57.11;100897.16;15808233;28;20044;-59
2021/09/10 07:50:58;;;;;;;1999.90;999.90;;;;;;;26.14;56.75;100912.19;15804787;28;20040;-59
2021/09/10 07:58:34;;;;;;;1999.90;999.90;;;;;;;26.97;55.32;100906.53;15785367;28;20036;-59
2021/09/10 08:06:06;;;;;;;1999.90;999.90;;;;;;;27.60;53.81;100901.44;15802423;28;20109;-59
2021/09/10 08:13:40;;;;;;;1999.90;999.90;;;;;;;27.91;52.23;100906.84;15782918;28;20131;-57
2021/09/10 08:21:16;;;;;;;1999.90;999.90;;;;;;;28.08;51.65;100901.91;15806771;28;20044;-58
2021/09/10 08:28:52;;;;;;;1999.90;999.90;;;;;;;28.53;52.52;100909.75;15788752;28;20048;-59
2021/09/10 08:36:24;;;;;;;1999.90;999.90;;;;;;;28.81;51.95;100911.03;15795520;28;20137;-58
2021/09/10 08:44:17;;;;;;;1999.90;999.90;;;;;;;28.94;50.46;100917.63;15795746;28;20577;-58
2021/09/10 08:51:53;;;;;;;1999.90;999.90;;;;;;;29.44;48.83;100924.75;15777911;28;20044;-60
2021/09/10 09:00:06;;;;;;;1999.90;999.90;;;;;;;29.81;48.35;100931.81;15811999;28;20168;-57
2021/09/10 09:08:04;;;;;;;1999.90;999.90;;;;;;;30.41;47.33;100941.25;15785584;28;20047;-59
2021/09/10 09:15:38;;;;;;;1999.90;999.90;;;;;;;30.36;48.00;100936.09;15810670;28;20044;-59
2021/09/10 09:23:28;;;;;;;1999.90;999.90;;;;;;;30.27;47.31;100938.88;15810535;28;20430;-60
2021/09/10 09:31:08;;;;;;;1999.90;999.90;;;;;;;30.92;49.30;100941.06;15791418;28;20650;-60
2021/09/10 09:38:52;;;;;;;1999.90;999.90;;;;;;;31.55;48.41;100945.66;15809237;28;20060;-60
2021/09/10 09:46:33;;;;;;;1999.90;999.90;;;;;;;30.38;47.67;100944.25;15784175;28;20036;-60
2021/09/10 09:54:11;;;;;;;1999.90;999.90;;;;;;;31.53;45.65;100944.53;15773629;28;20139;-60
2021/09/10 10:01:51;;;;;;;1999.90;999.90;;;;;;;32.04;45.08;100956.47;15807891;28;20048;-61
2021/09/10 10:09:30;;;;;;;1999.90;999.90;;;;;;;32.95;41.74;100946.34;15790361;28;20052;-59
2021/09/10 10:17:40;;;;;;;1999.90;999.90;;;;;;;32.84;40.99;100943.16;15790834;28;20043;-61
2021/09/10 10:25:17;;;;;;;1999.90;999.90;;;;;;;33.38;40.55;100938.59;15789474;28;20043;-60
2021/09/10 10:33:25;;;;;;;1999.90;999.90;;;;;;;33.66;40.03;100942.16;15744492;28;20048;-60
2021/09/10 10:41:22;;;;;;;1999.90;999.90;;;;;;;33.96;39.87;100934.50;15743360;28;20474;-59
2021/09/10 10:48:59;;;;;;;1999.90;999.90;;;;;;;34.05;39.73;100928.66;15741715;28;20056;-60
2021/09/10 10:56:45;;;;;;;1999.90;999.90;;;;;;;33.97;40.79;100930.31;15741709;28;20657;-59
2021/09/10 11:04:44;;;;;;;1999.90;999.90;;;;;;;34.38;39.19;100919.94;15722614;28;20040;-60
2021/09/10 11:21:04;;;;;;;1999.90;999.90;;;;;;;32.06;45.07;100907.72;15737270;28;20052;-60
2021/09/10 11:28:39;;;;;;;1999.90;999.90;;;;;;;33.33;44.08;100904.50;15766646;28;20051;-59
2021/09/10 11:36:23;;;;;;;1999.90;999.90;;;;;;;32.83;43.88;100892.41;15803823;28;20059;-58
2021/09/10 11:44:05;;;;;;;1999.90;999.90;;;;;;;32.25;43.96;100894.13;15768578;28;20036;-59
2021/09/10 11:51:46;;;;;;;1999.90;999.90;;;;;;;32.10;44.30;100885.31;15784294;28;20105;-57
2021/09/10 11:59:25;;;;;;;1999.90;999.90;;;;;;;32.13;44.95;100875.69;15782726;28;20130;-59
2021/09/10 12:07:03;;;;;;;1999.90;999.90;;;;;;;31.54;47.45;100882.69;15801473;28;20405;-58
2021/09/10 12:14:41;;;;;;;1999.90;999.90;;;;;;;30.70;50.70;100874.03;15802367;28;20036;-60
2021/09/10 12:22:38;;;;;;;1999.90;999.90;;;;;;;30.04;53.89;100881.72;15802693;28;20044;-59
2021/09/10 12:30:13;;;;;;;1999.90;999.90;;;;;;;30.03;56.15;100888.72;15804295;28;20044;-59
2021/09/10 12:37:55;;;;;;;1999.90;999.90;;;;;;;30.09;59.52;100881.13;15784572;28;20052;-59
2021/09/10 12:45:27;;;;;;;1999.90;999.90;;;;;;;32.35;55.17;100872.69;15784216;28;20052;-59
2021/09/10 12:53:01;;;;;;;1999.90;999.90;;;;;;;30.07;57.87;100866.41;15800237;28;20040;-58
2021/09/10 13:00:37;;;;;;;1999.90;999.90;;;;;;;28.88;60.00;100856.25;15800052;28;20119;-59
2021/09/10 13:08:11;;;;;;;1999.90;999.90;;;;;;;28.16;62.06;100871.81;15764043;28;20047;-57
2021/09/10 13:15:49;;;;;;;1999.90;999.90;;;;;;;26.92;65.54;100907.06;15764471;28;20052;-57
2021/09/10 13:23:25;;;;;;;1999.90;999.90;;;;;;;25.13;70.10;100905.59;15796909;28;20073;-60
2021/09/10 13:30:58;;;;;;;1999.90;999.90;;;;;;;23.94;70.75;100932.91;15753617;28;20055;-60
2021/09/10 13:38:33;;;;;;;1999.90;999.90;;;;;;;23.71;73.82;100976.22;15790522;28;20094;-59
2021/09/10 13:46:06;;;;;;;1999.90;999.90;;;;;;;22.76;76.54;100948.56;15762060;28;20130;-61
2021/09/10 13:53:41;;;;;;;1999.90;999.90;;;;;;;22.32;76.98;100880.84;15758766;28;20066;-61
2021/09/10 14:01:14;;;;;;;1999.90;999.90;;;;;;;23.66;73.84;100876.97;15771504;28;20127;-61
2021/09/10 14:08:50;;;;;;;1999.90;999.90;;;;;;;24.53;72.83;100904.28;15762533;28;20059;-61
2021/09/10 14:16:23;;;;;;;1999.90;999.90;;;;;;;24.84;71.40;100888.81;15779200;28;20127;-60
2021/09/10 14:23:57;;;;;;;1999.90;999.90;;;;;;;24.21;69.88;100935.94;15763732;28;20033;-61
2021/09/10 14:31:31;;;;;;;1999.90;999.90;;;;;;;24.04;70.84;100927.09;15780048;28;20048;-60
2021/09/10 14:39:06;;;;;;;1999.90;999.90;;;;;;;23.52;72.55;100921.38;15765288;28;20123;-61
2021/09/10 14:46:40;;;;;;;1999.90;999.90;;;;;;;23.32;72.62;100937.34;15779623;28;20044;-60
2021/09/10 14:54:14;;;;;;;1999.90;999.90;;;;;;;23.41;73.62;100922.66;15744516;28;20087;-60
2021/09/10 15:01:48;;;;;;;1999.90;999.90;;;;;;;23.43;74.52;100903.13;15766987;28;20141;-59
2021/09/10 15:09:22;;;;;;;1999.90;999.90;;;;;;;24.02;75.39;100923.88;15761346;28;20039;-59
2021/09/10 15:16:57;;;;;;;1999.90;999.90;;;;;;;24.16;74.01;100900.13;15781402;28;20481;-61
2021/09/10 15:24:31;;;;;;;1999.90;999.90;;;;;;;24.09;75.69;100940.13;15769709;28;20048;-60
2021/09/10 15:32:03;;;;;;;1999.90;999.90;;;;;;;24.13;75.05;100915.22;15802477;28;20040;-60
2021/09/10 15:39:39;;;;;;;1999.90;999.90;;;;;;;24.21;74.40;100935.94;15791887;28;20050;-60
2021/09/10 15:47:11;;;;;;;1999.90;999.90;;;;;;;24.30;75.89;100925.66;15770076;28;20047;-60
2021/09/10 15:54:45;;;;;;;1999.90;999.90;;;;;;;23.90;76.27;100895.91;15767850;28;20044;-60
2021/09/10 16:02:17;;;;;;;1999.90;999.90;;;;;;;24.12;75.26;100899.38;15763815;28;20052;-62
2021/09/10 16:09:51;;;;;;;1999.90;999.90;;;;;;;24.54;75.94;100885.91;15786288;28;20547;-61
2021/09/10 16:17:24;;;;;;;1999.90;999.90;;;;;;;24.65;75.56;100878.03;15798554;28;20455;-61
2021/09/10 16:24:58;;;;;;;1999.90;999.90;;;;;;;24.71;74.13;100862.09;15790132;28;20128;-61
2021/09/10 16:32:30;;;;;;;1999.90;999.90;;;;;;;25.11;75.41;100856.66;15766445;28;20101;-61
2021/09/10 16:40:06;;;;;;;1999.90;999.90;;;;;;;25.06;75.19;100857.16;15741763;28;20051;-62
2021/09/10 16:47:38;;;;;;;1999.90;999.90;;;;;;;24.85;74.63;100849.66;15788478;28;20040;-61
2021/09/10 16:55:12;;;;;;;1999.90;999.90;;;;;;;24.64;77.14;100856.47;15764410;28;20043;-62
2021/09/10 17:02:44;;;;;;;1999.90;999.90;;;;;;;24.76;76.16;100878.72;15752790;28;20052;-63
2021/09/10 17:10:18;;;;;;;1999.90;999.90;;;;;;;24.82;77.55;100879.06;15766533;28;20105;-62
2021/09/10 17:17:51;;;;;;;1999.90;999.90;;;;;;;24.64;78.62;100874.38;15792886;28;20496;-63
2021/09/10 17:25:24;;;;;;;;;;;;;;;24.59;78.90;100859.75;15765631;28;20484;-60
2021/09/10 17:32:56;;;;;;;1999.90;999.90;;;;;;;24.35;79.66;100865.34;15779956;28;19942;-60
2021/09/10 17:40:30;;;;;;;1999.90;999.90;;;;;;;24.33;79.24;100869.84;15733504;28;20102;-60
2021/09/10 17:48:03;;;;;;;1999.90;999.90;;;;;;;23.95;80.21;100871.81;15760936;28;20114;-58
2021/09/10 17:55:37;;;;;;;1999.90;999.90;;;;;;;23.51;82.78;100896.97;15768831;28;20043;-61
2021/09/10 18:03:09;;;;;;;1999.90;999.90;;;;;;;23.88;80.37;100916.28;15781287;28;20055;-60
2021/09/10 18:10:43;;;;;;;1999.90;999.90;;;;;;;23.79;79.92;100917.97;15770494;28;20445;-61
2021/09/10 18:18:15;;;;;;;1999.90;999.90;;;;;;;23.33;82.16;100927.59;15766124;28;20566;-61
2021/09/10 18:25:49;;;;;;;1999.90;999.90;;;;;;;23.53;80.96;100930.72;15801513;28;20040;-60
2021/09/10 18:33:21;;;;;;;1999.90;999.90;;;;;;;23.52;80.31;100934.81;15762623;28;20528;-60
2021/09/10 18:40:55;;;;;;;1999.90;999.90;;;;;;;23.36;79.95;100946.72;15769784;28;20047;-60
2021/09/10 18:48:27;;;;;;;1999.90;999.90;;;;;;;23.04;79.99;100944.03;15763810;28;20050;-61
2021/09/10 18:56:01;;;;;;;1999.90;999.90;;;;;;;23.07;79.53;100946.03;15817281;28;20067;-61
2021/09/10 19:03:33;;;;;;;1999.90;999.90;;;;;;;22.85;79.45;100936.78;15781513;28;20044;-60
2021/09/10 19:11:08;;;;;;;;;;;;;;;22.79;79.53;100948.94;15786807;28;20040;-61
2021/09/10 19:18:42;;;;;;;1999.90;999.90;;;;;;;22.62;79.76;100940.06;15826352;28;19920;-62
2021/09/10 19:26:16;;;;;;;1999.90;999.90;;;;;;;22.17;83.13;100941.75;15791577;28;20566;-57
2021/09/10 19:33:48;;;;;;;1999.90;999.90;;;;;;;22.51;80.45;100949.81;15782497;28;20066;-57
2021/09/10 19:41:22;;;;;;;1999.90;999.90;;;;;;;22.18;80.49;100949.88;15797314;28;20059;-61
2021/09/10 19:48:54;;;;;;;1999.90;999.90;;;;;;;22.19;79.63;100945.00;15750892;28;20044;-60
2021/09/10 19:56:28;;;;;;;1999.90;999.90;;;;;;;22.09;81.81;100957.16;15795194;28;20055;-60
2021/09/10 20:04:00;;;;;;;1999.90;999.90;;;;;;;21.66;85.29;100944.94;15762150;28;20044;-61
2021/09/10 20:11:34;;;;;;;1999.90;999.90;;;;;;;22.15;81.55;100944.19;15786492;28;20044;-62
2021/09/10 20:19:06;;;;;;;1999.90;999.90;;;;;;;22.07;80.27;100951.09;15763137;28;20040;-63
2021/09/10 20:26:40;;;;;;;1999.90;999.90;;;;;;;22.01;80.27;100949.84;15768737;28;20090;-62
2021/09/10 20:34:12;;;;;;;1999.90;999.90;;;;;;;21.90;79.73;100956.34;15766839;28;20337;-62
2021/09/10 20:41:46;;;;;;;1999.90;999.90;;;;;;;21.77;79.83;100952.25;15782033;28;20070;-62
2021/09/10 20:49:18;;;;;;;1999.90;999.90;;;;;;;21.75;79.59;100954.69;15739931;28;20071;-59
2021/09/10 20:56:52;;;;;;;1999.90;999.90;;;;;;;21.69;80.22;100964.03;15788905;28;20465;-59
2021/09/10 21:04:24;;;;;;;1999.90;999.90;;;;;;;21.75;79.50;100962.41;15752785;28;20033;-59
2021/09/10 21:11:58;;;;;;;1999.90;999.90;;;;;;;21.64;79.50;100970.91;15777737;28;20044;-61
2021/09/10 21:19:31;;;;;;;1999.90;999.90;;;;;;;21.53;79.86;100973.72;15771884;28;20037;-60
2021/09/10 21:27:05;;;;;;;1999.90;999.90;;;;;;;21.48;80.13;100976.97;15780514;28;20052;-59
2021/09/10 21:34:37;;;;;;;1999.90;999.90;;;;;;;21.45;79.87;100968.44;15765369;28;20041;-63
2021/09/10 21:42:11;;;;;;;1999.90;999.90;;;;;;;21.35;79.61;100967.19;15777032;28;20459;-59
2021/09/10 21:49:43;;;;;;;1999.90;999.90;;;;;;;21.23;80.32;100971.16;15786888;28;20624;-61
2021/09/10 21:57:17;;;;;;;1999.90;999.90;;;;;;;21.25;80.41;100968.72;15808692;28;20045;-61
2021/09/10 22:04:50;;;;;;;1999.90;999.90;;;;;;;21.18;80.09;100965.88;15772330;28;20055;-60
2021/09/10 22:12:24;;;;;;;1999.90;999.90;;;;;;;21.12;80.67;100970.31;15765118;28;20490;-60
2021/09/10 22:19:56;;;;;;;1999.90;999.90;;;;;;;21.01;80.10;100972.28;15782807;28;20037;-57
2021/09/10 22:27:30;;;;;;;1999.90;999.90;;;;;;;20.96;79.87;100978.38;15807817;28;20066;-60
2021/09/10 22:35:03;;;;;;;1999.90;999.90;;;;;;;20.87;80.11;100986.41;15777039;28;20039;-59
2021/09/10 22:42:37;;;;;;;1999.90;999.90;;;;;;;20.86;80.83;100979.13;15773299;28;20036;-59
2021/09/10 22:50:10;;;;;;;1999.90;999.90;;;;;;;20.89;80.91;100981.16;15760612;28;20101;-60
2021/09/10 22:57:44;;;;;;;1999.90;999.90;;;;;;;20.82;80.91;100970.56;15800772;28;20048;-60
2021/09/10 23:05:16;;;;;;;1999.90;999.90;;;;;;;20.73;80.64;100967.28;15796301;28;20501;-60
2021/09/10 23:12:49;;;;;;;1999.90;999.90;;;;;;;20.66;80.39;100970.09;15762766;28;20044;-58
2021/09/10 23:20:22;;;;;;;1999.90;999.90;;;;;;;20.53;80.49;100963.09;15780456;28;20044;-58
2021/09/10 23:27:56;;;;;;;1999.90;999.90;;;;;;;20.50;80.26;100964.72;15803715;28;20040;-59
2021/09/10 23:35:28;;;;;;;1999.90;999.90;;;;;;;20.43;80.18;100959.03;15771974;28;20040;-61
2021/09/10 23:43:02;;;;;;;1999.90;999.90;;;;;;;20.39;80.37;100958.13;15733397;28;20058;-59
2021/09/10 23:50:35;;;;;;;1999.90;999.90;;;;;;;20.30;80.44;100954.81;15783454;28;20089;-59
2021/09/10 23:58:09;;;;;;;1999.90;999.90;;;;;;;20.30;80.96;100954.81;15773337;28;20044;-59
